createdAt,value
2018-07-15T00:00:19.037Z,0.00
2018-07-15T00:01:19.234Z,0.00
2018-07-15T00:02:19.404Z,0.00
2018-07-15T00:03:19.640Z,0.00
2018-07-15T00:04:19.781Z,0.00
2018-07-15T00:05:19.968Z,0.00
2018-07-15T00:06:20.144Z,0.00
2018-07-15T00:07:20.336Z,0.00
2018-07-15T00:08:20.562Z,0.00
2018-07-15T00:09:20.708Z,0.00
2018-07-15T00:10:20.912Z,0.00
2018-07-15T00:11:21.091Z,0.00
2018-07-15T00:12:21.275Z,0.00
2018-07-15T00:13:21.451Z,0.00
2018-07-15T00:14:21.633Z,0.00
2018-07-15T00:15:21.807Z,0.00
2018-07-15T00:16:21.995Z,0.00
2018-07-15T00:17:22.172Z,0.00
2018-07-15T00:18:22.372Z,0.00
2018-07-15T00:19:22.559Z,0.00
2018-07-15T00:20:22.761Z,0.00
2018-07-15T00:21:22.931Z,0.00
2018-07-15T00:22:23.107Z,0.00
2018-07-15T00:23:23.305Z,0.00
2018-07-15T00:24:23.490Z,0.00
2018-07-15T00:25:23.671Z,0.00
2018-07-15T00:26:23.842Z,0.00
2018-07-15T00:27:24.016Z,0.00
2018-07-15T00:28:24.202Z,0.00
2018-07-15T00:29:24.393Z,0.00
2018-07-15T00:30:24.576Z,0.00
2018-07-15T00:31:24.778Z,0.00
2018-07-15T00:32:24.962Z,0.00
2018-07-15T00:33:25.135Z,0.00
2018-07-15T00:34:25.343Z,0.00
2018-07-15T00:35:25.512Z,0.00
2018-07-15T00:36:25.716Z,0.00
2018-07-15T00:37:25.854Z,0.00
2018-07-15T00:38:26.048Z,0.00
2018-07-15T00:39:26.223Z,0.00
2018-07-15T00:40:26.414Z,0.00
2018-07-15T00:41:26.590Z,0.00
2018-07-15T00:42:26.792Z,0.00
2018-07-15T00:43:26.978Z,0.00
2018-07-15T00:44:27.192Z,0.00
2018-07-15T00:45:27.395Z,0.00
2018-07-15T00:46:27.588Z,0.00
2018-07-15T00:47:27.756Z,0.00
2018-07-15T00:48:27.957Z,0.00
2018-07-15T00:49:28.136Z,0.00
2018-07-15T00:50:28.320Z,0.00
2018-07-15T00:51:28.501Z,0.00
2018-07-15T00:52:28.686Z,0.00
2018-07-15T00:53:28.888Z,0.00
2018-07-15T00:54:29.064Z,0.00
2018-07-15T00:55:29.250Z,0.00
2018-07-15T00:56:29.429Z,0.00
2018-07-15T00:57:29.630Z,0.00
2018-07-15T00:58:29.797Z,0.00
2018-07-15T00:59:29.984Z,0.00
2018-07-15T01:00:30.160Z,0.00
2018-07-15T01:01:30.364Z,0.00
2018-07-15T01:02:30.525Z,0.00
2018-07-15T01:03:30.737Z,0.00
2018-07-15T01:04:30.930Z,0.00
2018-07-15T01:05:31.142Z,0.00
2018-07-15T01:06:31.316Z,0.00
2018-07-15T01:07:31.498Z,0.00
2018-07-15T01:08:31.681Z,0.00
2018-07-15T01:09:31.898Z,0.00
2018-07-15T01:10:32.036Z,0.00
2018-07-15T01:11:32.217Z,0.00
2018-07-15T01:12:32.391Z,0.00
2018-07-15T01:13:32.565Z,0.00
2018-07-15T01:14:32.753Z,0.00
2018-07-15T01:15:32.941Z,0.00
2018-07-15T01:16:33.118Z,0.00
2018-07-15T01:17:33.303Z,0.00
2018-07-15T01:18:33.490Z,0.00
2018-07-15T01:19:33.699Z,0.00
2018-07-15T01:20:33.873Z,0.00
2018-07-15T01:21:34.054Z,0.00
2018-07-15T01:22:34.231Z,0.00
2018-07-15T01:23:34.417Z,0.00
2018-07-15T01:24:34.594Z,0.00
2018-07-15T01:25:34.792Z,0.00
2018-07-15T01:26:37.949Z,0.00
2018-07-15T01:27:35.128Z,0.00
2018-07-15T01:28:35.315Z,0.00
2018-07-15T01:29:35.496Z,0.00
2018-07-15T01:30:35.674Z,0.00
2018-07-15T01:31:35.868Z,0.00
2018-07-15T01:32:36.043Z,0.00
2018-07-15T01:33:36.257Z,0.00
2018-07-15T01:34:36.434Z,0.00
2018-07-15T01:35:36.621Z,0.00
2018-07-15T01:36:36.819Z,0.00
2018-07-15T01:37:36.990Z,0.00
2018-07-15T01:38:37.166Z,0.00
2018-07-15T01:39:37.356Z,0.00
2018-07-15T01:40:37.545Z,0.00
2018-07-15T01:41:37.732Z,0.00
2018-07-15T01:42:37.915Z,0.00
2018-07-15T01:43:38.092Z,0.00
2018-07-15T01:44:38.280Z,0.00
2018-07-15T01:45:38.455Z,0.00
2018-07-15T01:46:38.667Z,0.00
2018-07-15T01:47:38.802Z,0.00
2018-07-15T01:48:38.987Z,0.00
2018-07-15T01:49:39.194Z,0.00
2018-07-15T01:50:39.368Z,0.00
2018-07-15T01:51:39.553Z,0.00
2018-07-15T01:52:39.725Z,0.00
2018-07-15T01:53:39.909Z,0.00
2018-07-15T01:54:40.105Z,0.00
2018-07-15T01:55:40.277Z,0.00
2018-07-15T01:56:40.489Z,0.00
2018-07-15T01:57:40.665Z,0.00
2018-07-15T01:58:40.851Z,0.00
2018-07-15T01:59:41.033Z,0.00
2018-07-15T02:00:41.219Z,0.00
2018-07-15T02:01:41.404Z,0.00
2018-07-15T02:02:41.577Z,0.00
2018-07-15T02:03:41.777Z,0.00
2018-07-15T02:04:41.959Z,0.00
2018-07-15T02:05:42.167Z,0.00
2018-07-15T02:06:42.379Z,0.00
2018-07-15T02:07:42.522Z,0.00
2018-07-15T02:08:42.695Z,0.00
2018-07-15T02:09:42.886Z,0.00
2018-07-15T02:10:43.067Z,0.00
2018-07-15T02:11:43.256Z,0.00
2018-07-15T02:12:43.442Z,0.00
2018-07-15T02:13:43.648Z,0.00
2018-07-15T02:14:43.858Z,0.00
2018-07-15T02:15:44.037Z,0.00
2018-07-15T02:16:44.244Z,0.00
2018-07-15T02:17:44.422Z,0.00
2018-07-15T02:18:44.593Z,0.00
2018-07-15T02:19:44.787Z,0.00
2018-07-15T02:20:44.965Z,0.00
2018-07-15T02:21:45.155Z,0.00
2018-07-15T02:22:45.368Z,0.00
2018-07-15T02:23:45.572Z,0.00
2018-07-15T02:24:45.759Z,0.00
2018-07-15T02:25:45.941Z,0.00
2018-07-15T02:26:46.124Z,0.00
2018-07-15T02:27:46.301Z,0.00
2018-07-15T02:28:46.496Z,0.00
2018-07-15T02:29:46.752Z,0.00
2018-07-15T02:30:46.901Z,0.00
2018-07-15T02:31:47.057Z,0.00
2018-07-15T02:32:47.226Z,0.00
2018-07-15T02:33:47.418Z,0.00
2018-07-15T02:34:47.616Z,0.00
2018-07-15T02:35:47.799Z,0.00
2018-07-15T02:36:48.069Z,0.00
2018-07-15T02:37:48.168Z,0.00
2018-07-15T02:38:48.328Z,0.00
2018-07-15T02:39:48.517Z,0.00
2018-07-15T02:40:48.685Z,4.00
2018-07-15T02:41:48.861Z,4.00
2018-07-15T02:42:49.038Z,0.00
2018-07-15T02:43:49.229Z,0.00
2018-07-15T02:44:49.415Z,0.00
2018-07-15T02:45:49.588Z,4.00
2018-07-15T02:46:49.762Z,0.00
2018-07-15T02:47:49.946Z,4.00
2018-07-15T02:48:50.126Z,4.00
2018-07-15T02:49:50.303Z,4.00
2018-07-15T02:50:50.487Z,4.00
2018-07-15T02:51:50.677Z,4.00
2018-07-15T02:52:50.858Z,8.00
2018-07-15T02:53:51.049Z,8.00
2018-07-15T02:54:51.235Z,8.00
2018-07-15T02:55:51.410Z,12.00
2018-07-15T02:56:51.625Z,8.00
2018-07-15T02:57:51.777Z,12.00
2018-07-15T02:58:51.974Z,16.00
2018-07-15T02:59:52.160Z,16.00
2018-07-15T03:00:52.345Z,16.00
2018-07-15T03:01:52.521Z,20.00
2018-07-15T03:02:52.727Z,24.00
2018-07-15T03:03:52.928Z,24.00
2018-07-15T03:04:53.113Z,28.00
2018-07-15T03:05:53.298Z,32.00
2018-07-15T03:06:53.478Z,36.00
2018-07-15T03:07:53.674Z,40.00
2018-07-15T03:08:53.847Z,44.00
2018-07-15T03:09:54.034Z,48.00
2018-07-15T03:10:54.220Z,56.00
2018-07-15T03:11:54.407Z,60.00
2018-07-15T03:12:54.628Z,64.00
2018-07-15T03:13:54.760Z,72.00
2018-07-15T03:14:54.952Z,80.00
2018-07-15T03:15:55.157Z,88.00
2018-07-15T03:16:55.362Z,96.00
2018-07-15T03:17:55.571Z,104.00
2018-07-15T03:18:55.755Z,116.00
2018-07-15T03:19:55.937Z,128.00
2018-07-15T03:20:56.123Z,136.00
2018-07-15T03:21:56.300Z,148.00
2018-07-15T03:22:56.519Z,164.00
2018-07-15T03:23:56.706Z,176.00
2018-07-15T03:24:56.880Z,188.00
2018-07-15T03:25:57.065Z,200.00
2018-07-15T03:26:57.248Z,220.00
2018-07-15T03:27:57.421Z,232.00
2018-07-15T03:28:57.596Z,252.00
2018-07-15T03:29:57.778Z,268.00
2018-07-15T03:30:57.944Z,284.00
2018-07-15T03:31:58.163Z,304.00
2018-07-15T03:32:58.338Z,324.00
2018-07-15T03:33:58.540Z,348.00
2018-07-15T03:34:58.712Z,372.00
2018-07-15T03:35:58.893Z,392.00
2018-07-15T03:36:59.084Z,420.00
2018-07-15T03:37:59.268Z,448.00
2018-07-15T03:38:59.455Z,476.00
2018-07-15T03:39:59.686Z,508.00
2018-07-15T03:40:59.820Z,540.00
2018-07-15T03:41:59.997Z,572.00
2018-07-15T03:43:00.173Z,604.00
2018-07-15T03:44:00.383Z,644.00
2018-07-15T03:45:00.565Z,680.00
2018-07-15T03:46:00.763Z,716.00
2018-07-15T03:47:00.947Z,764.00
2018-07-15T03:48:01.136Z,804.00
2018-07-15T03:49:01.326Z,844.00
2018-07-15T03:50:01.511Z,892.00
2018-07-15T03:51:01.695Z,944.00
2018-07-15T03:52:01.877Z,988.00
2018-07-15T03:53:02.055Z,1036.00
2018-07-15T03:54:02.240Z,1088.00
2018-07-15T03:55:02.423Z,1144.00
2018-07-15T03:56:02.607Z,1212.00
2018-07-15T03:57:02.808Z,1264.00
2018-07-15T03:58:02.970Z,1324.00
2018-07-15T03:59:03.149Z,1416.00
2018-07-15T04:00:03.325Z,1480.00
2018-07-15T04:01:03.517Z,1580.00
2018-07-15T04:02:03.704Z,1620.00
2018-07-15T04:03:03.910Z,1648.00
2018-07-15T04:04:04.077Z,1708.00
2018-07-15T04:05:04.256Z,1772.00
2018-07-15T04:06:04.461Z,1848.00
2018-07-15T04:07:04.642Z,2036.00
2018-07-15T04:08:04.819Z,2092.00
2018-07-15T04:09:05.005Z,2092.00
2018-07-15T04:10:05.185Z,2160.00
2018-07-15T04:11:05.371Z,2236.00
2018-07-15T04:12:05.553Z,2272.00
2018-07-15T04:13:05.731Z,2320.00
2018-07-15T04:14:05.925Z,2392.00
2018-07-15T04:15:06.109Z,2476.00
2018-07-15T04:16:06.284Z,2544.00
2018-07-15T04:17:06.454Z,2604.00
2018-07-15T04:18:06.642Z,2820.00
2018-07-15T04:19:06.814Z,2808.00
2018-07-15T04:20:07.036Z,2932.00
2018-07-15T04:21:07.241Z,3032.00
2018-07-15T04:22:07.428Z,2976.00
2018-07-15T04:23:07.604Z,3028.00
2018-07-15T04:24:07.785Z,3092.00
2018-07-15T04:25:08.005Z,3288.00
2018-07-15T04:26:08.140Z,3344.00
2018-07-15T04:27:08.315Z,3304.00
2018-07-15T04:28:08.499Z,3380.00
2018-07-15T04:29:08.678Z,3448.00
2018-07-15T04:30:08.861Z,3536.00
2018-07-15T04:31:09.030Z,3612.00
2018-07-15T04:32:09.232Z,3676.00
2018-07-15T04:33:09.421Z,3760.00
2018-07-15T04:34:09.635Z,3840.00
2018-07-15T04:35:09.809Z,3900.00
2018-07-15T04:36:10.016Z,3960.00
2018-07-15T04:37:10.169Z,4056.00
2018-07-15T04:38:10.346Z,4120.00
2018-07-15T04:39:10.529Z,4232.00
2018-07-15T04:40:10.723Z,4272.00
2018-07-15T04:41:10.912Z,4332.00
2018-07-15T04:42:11.080Z,4428.00
2018-07-15T04:43:11.262Z,4476.00
2018-07-15T04:44:11.452Z,4532.00
2018-07-15T04:45:11.652Z,4724.00
2018-07-15T04:46:11.828Z,5140.00
2018-07-15T04:47:12.018Z,6768.00
2018-07-15T04:48:12.205Z,8436.00
2018-07-15T04:49:12.379Z,10764.00
2018-07-15T04:50:12.591Z,15360.00
2018-07-15T04:51:12.778Z,19104.00
2018-07-15T04:52:12.962Z,19296.00
2018-07-15T04:53:13.143Z,21536.00
2018-07-15T04:54:13.331Z,28416.00
2018-07-15T04:55:13.539Z,33568.00
2018-07-15T04:56:13.719Z,34976.00
2018-07-15T04:57:13.904Z,34048.00
2018-07-15T04:58:14.091Z,34272.00
2018-07-15T04:59:14.278Z,37344.00
2018-07-15T05:00:14.475Z,37888.00
2018-07-15T05:01:14.667Z,38048.00
2018-07-15T05:02:14.860Z,40032.00
2018-07-15T05:03:15.034Z,41504.00
2018-07-15T05:04:15.206Z,41664.00
2018-07-15T05:05:15.395Z,42880.00
2018-07-15T05:06:15.587Z,42528.00
2018-07-15T05:07:15.766Z,41856.00
2018-07-15T05:08:15.944Z,41984.00
2018-07-15T05:09:16.129Z,43168.00
2018-07-15T05:10:16.321Z,44128.00
2018-07-15T05:11:16.595Z,43840.00
2018-07-15T05:12:16.705Z,46368.00
2018-07-15T05:13:16.881Z,48096.00
2018-07-15T05:14:17.069Z,49984.00
2018-07-15T05:15:17.264Z,50240.00
2018-07-15T05:16:17.450Z,52576.00
2018-07-15T05:17:17.665Z,52992.00
2018-07-15T05:18:17.918Z,54656.00
2018-07-15T05:19:18.025Z,54208.00
2018-07-15T05:20:18.223Z,55232.00
2018-07-15T05:21:18.427Z,56928.00
2018-07-15T05:22:18.621Z,57568.00
2018-07-15T05:23:18.806Z,56064.00
2018-07-15T05:24:18.998Z,56896.00
2018-07-15T05:25:19.198Z,57696.00
2018-07-15T05:26:19.368Z,57536.00
2018-07-15T05:27:19.575Z,58112.00
2018-07-15T05:28:19.784Z,57920.00
2018-07-15T05:29:19.948Z,55840.00
2018-07-15T05:30:20.125Z,57216.00
2018-07-15T05:31:20.338Z,58528.00
2018-07-15T05:32:20.532Z,60224.00
2018-07-15T05:33:20.730Z,62080.00
2018-07-15T05:34:20.925Z,64640.00
2018-07-15T05:35:21.119Z,65696.00
2018-07-15T05:36:21.315Z,65216.00
2018-07-15T05:37:21.502Z,65824.00
2018-07-15T05:38:21.712Z,65376.00
2018-07-15T05:39:21.882Z,65280.00
2018-07-15T05:40:22.131Z,62016.00
2018-07-15T05:41:22.331Z,63360.00
2018-07-15T05:42:22.527Z,47840.00
2018-07-15T05:43:22.727Z,52960.00
2018-07-15T05:44:23.005Z,40128.00
2018-07-15T05:45:23.133Z,30240.00
2018-07-15T05:48:06.051Z,68736.00
2018-07-15T05:49:06.246Z,67168.00
2018-07-15T05:50:06.447Z,47168.00
2018-07-15T05:51:06.644Z,71616.00
2018-07-15T05:52:06.841Z,74336.00
2018-07-15T05:53:07.035Z,73216.00
2018-07-15T05:54:07.234Z,74624.00
2018-07-15T05:55:07.424Z,77664.00
2018-07-15T05:56:07.612Z,80736.00
2018-07-15T05:57:07.824Z,81376.00
2018-07-15T05:58:08.129Z,80864.00
2018-07-15T05:59:08.202Z,80416.00
2018-07-15T06:00:08.428Z,78464.00
2018-07-15T06:01:08.584Z,76896.00
2018-07-15T06:02:08.794Z,78208.00
2018-07-15T06:03:08.952Z,80256.00
2018-07-15T06:04:09.131Z,79008.00
2018-07-15T06:05:09.328Z,78784.00
2018-07-15T06:06:09.536Z,79968.00
2018-07-15T06:07:09.705Z,80768.00
2018-07-15T06:08:09.895Z,80096.00
2018-07-15T06:09:10.112Z,81376.00
2018-07-15T06:10:10.308Z,80896.00
2018-07-15T06:11:10.523Z,80896.00
2018-07-15T06:12:10.690Z,82912.00
2018-07-15T06:13:10.868Z,66304.00
2018-07-15T06:14:11.090Z,54176.00
2018-07-15T06:15:11.301Z,37376.00
2018-07-15T06:16:11.483Z,30624.00
2018-07-15T06:17:11.771Z,20608.00
2018-07-15T06:18:11.884Z,20192.00
2018-07-15T06:19:12.080Z,22240.00
2018-07-15T06:20:12.277Z,28672.00
2018-07-15T06:22:55.192Z,66336.00
2018-07-15T06:23:55.400Z,76768.00
2018-07-15T06:24:55.595Z,74496.00
2018-07-15T06:25:55.779Z,62400.00
2018-07-15T06:26:55.986Z,35936.00
2018-07-15T06:27:56.188Z,80128.00
2018-07-15T06:28:56.379Z,27008.00
2018-07-15T06:29:56.575Z,32896.00
2018-07-15T06:30:56.787Z,3520.00
2018-07-15T06:31:57.046Z,8924.00
2018-07-15T06:32:57.144Z,9880.00
2018-07-15T06:33:57.316Z,8432.00
2018-07-15T06:34:57.510Z,8244.00
2018-07-15T06:35:57.746Z,8748.00
2018-07-15T06:36:57.876Z,8300.00
2018-07-15T06:37:58.110Z,8444.00
2018-07-15T06:38:58.302Z,8192.00
2018-07-15T06:39:58.490Z,8536.00
2018-07-15T06:40:58.699Z,9212.00
2018-07-15T06:41:58.866Z,9520.00
2018-07-15T06:42:59.043Z,9424.00
2018-07-15T06:43:59.242Z,9320.00
2018-07-15T06:44:59.441Z,11532.00
2018-07-15T06:45:59.618Z,10144.00
2018-07-15T06:46:59.836Z,10496.00
2018-07-15T06:48:00.042Z,9536.00
2018-07-15T06:49:00.223Z,9728.00
2018-07-15T06:50:00.420Z,8844.00
2018-07-15T06:51:00.624Z,9348.00
2018-07-15T06:52:00.791Z,8540.00
2018-07-15T06:53:00.985Z,9932.00
2018-07-15T06:54:01.202Z,8912.00
2018-07-15T06:55:01.394Z,8480.00
2018-07-15T06:56:01.614Z,8236.00
2018-07-15T06:57:01.776Z,8092.00
2018-07-15T06:58:01.968Z,8240.00
2018-07-15T06:59:02.162Z,8168.00
2018-07-15T07:00:02.340Z,8620.00
2018-07-15T07:02:45.254Z,17760.00
2018-07-15T07:03:45.452Z,25696.00
2018-07-15T07:04:45.662Z,26144.00
2018-07-15T07:05:45.850Z,25664.00
2018-07-15T07:06:46.041Z,32480.00
2018-07-15T07:07:46.241Z,26432.00
2018-07-15T07:08:46.408Z,30656.00
2018-07-15T07:09:46.597Z,33568.00
2018-07-15T07:10:46.790Z,42016.00
2018-07-15T07:11:46.984Z,8928.00
2018-07-15T07:12:47.164Z,28832.00
2018-07-15T07:13:47.352Z,23072.00
2018-07-15T07:14:47.543Z,14236.00
2018-07-15T07:15:47.736Z,9668.00
2018-07-15T07:16:47.927Z,7476.00
2018-07-15T07:17:48.136Z,7348.00
2018-07-15T07:18:48.302Z,7260.00
2018-07-15T07:19:48.483Z,7252.00
2018-07-15T07:20:48.689Z,7400.00
2018-07-15T07:21:48.857Z,7364.00
2018-07-15T07:22:49.059Z,7488.00
2018-07-15T07:23:49.250Z,7648.00
2018-07-15T07:24:49.440Z,8020.00
2018-07-15T07:25:49.650Z,8524.00
2018-07-15T07:26:49.812Z,11488.00
2018-07-15T07:27:50.025Z,15744.00
2018-07-15T07:28:50.287Z,16896.00
2018-07-15T07:29:50.396Z,45536.00
2018-07-15T07:30:50.601Z,70304.00
2018-07-15T07:31:50.815Z,85888.00
2018-07-15T07:32:51.006Z,84960.00
2018-07-15T07:33:51.206Z,83200.00
2018-07-15T07:34:51.375Z,83904.00
2018-07-15T07:35:51.565Z,86048.00
2018-07-15T07:36:51.759Z,87456.00
2018-07-15T07:37:51.944Z,86720.00
2018-07-15T07:38:52.197Z,84096.00
2018-07-15T07:39:52.338Z,84096.00
2018-07-15T07:40:52.551Z,87264.00
2018-07-15T07:41:52.755Z,88800.00
2018-07-15T07:42:52.945Z,90240.00
2018-07-15T07:43:53.138Z,92192.00
2018-07-15T07:44:53.354Z,93760.00
2018-07-15T07:45:53.514Z,94304.00
2018-07-15T07:46:53.767Z,93152.00
2018-07-15T07:47:53.903Z,93952.00
2018-07-15T07:48:54.092Z,95008.00
2018-07-15T07:49:54.283Z,92000.00
2018-07-15T07:50:54.464Z,89312.00
2018-07-15T07:51:54.656Z,91072.00
2018-07-15T07:52:54.835Z,95712.00
2018-07-15T07:53:55.054Z,95680.00
2018-07-15T07:54:55.244Z,94688.00
2018-07-15T07:55:55.452Z,92416.00
2018-07-15T07:56:55.647Z,91328.00
2018-07-15T07:57:55.843Z,92992.00
2018-07-15T07:58:56.038Z,92448.00
2018-07-15T07:59:56.235Z,91360.00
2018-07-15T08:00:56.436Z,91488.00
2018-07-15T08:01:56.675Z,91712.00
2018-07-15T08:02:56.819Z,90816.00
2018-07-15T08:03:56.998Z,91200.00
2018-07-15T08:04:57.211Z,92032.00
2018-07-15T08:05:57.406Z,88128.00
2018-07-15T08:06:57.606Z,85056.00
2018-07-15T08:07:57.801Z,84960.00
2018-07-15T08:08:58.004Z,83424.00
2018-07-15T08:09:58.198Z,80608.00
2018-07-15T08:10:58.421Z,72192.00
2018-07-15T08:11:58.631Z,48032.00
2018-07-15T08:12:58.835Z,28000.00
2018-07-15T08:13:59.011Z,23488.00
2018-07-15T08:14:59.202Z,23488.00
2018-07-15T08:15:59.387Z,26816.00
2018-07-15T08:16:59.608Z,31776.00
2018-07-15T08:17:59.798Z,35168.00
2018-07-15T08:18:59.978Z,34784.00
2018-07-15T08:20:00.162Z,30592.00
2018-07-15T08:21:00.379Z,28384.00
2018-07-15T08:22:00.572Z,26720.00
2018-07-15T08:23:00.773Z,24224.00
2018-07-15T08:24:00.995Z,22144.00
2018-07-15T08:25:01.189Z,20032.00
2018-07-15T08:26:01.383Z,19456.00
2018-07-15T08:27:01.578Z,18144.00
2018-07-15T08:28:01.801Z,16960.00
2018-07-15T08:29:01.978Z,15936.00
2018-07-15T08:30:02.176Z,15296.00
2018-07-15T08:31:02.374Z,14268.00
2018-07-15T08:32:02.575Z,14328.00
2018-07-15T08:33:02.778Z,14324.00
2018-07-15T08:34:02.980Z,14524.00
2018-07-15T08:35:03.185Z,14944.00
2018-07-15T08:36:03.357Z,14488.00
2018-07-15T08:37:03.561Z,14568.00
2018-07-15T08:38:03.769Z,14552.00
2018-07-15T08:39:03.965Z,16320.00
2018-07-15T08:40:04.158Z,14848.00
2018-07-15T08:41:04.360Z,15424.00
2018-07-15T08:42:04.562Z,16256.00
2018-07-15T08:43:04.754Z,15392.00
2018-07-15T08:44:04.946Z,16416.00
2018-07-15T08:45:05.158Z,14848.00
2018-07-15T08:46:05.440Z,12616.00
2018-07-15T08:47:05.580Z,10716.00
2018-07-15T08:48:05.798Z,8668.00
2018-07-15T08:49:05.960Z,7528.00
2018-07-15T08:50:06.160Z,7304.00
2018-07-15T08:51:06.345Z,6248.00
2018-07-15T08:52:06.535Z,6252.00
2018-07-15T08:53:06.734Z,5560.00
2018-07-15T08:54:06.956Z,5228.00
2018-07-15T08:55:07.167Z,5048.00
2018-07-15T08:56:07.373Z,4996.00
2018-07-15T08:57:07.567Z,4952.00
2018-07-15T08:58:07.754Z,4872.00
2018-07-15T08:59:07.939Z,4896.00
2018-07-15T09:00:08.128Z,4780.00
2018-07-15T09:01:08.314Z,5128.00
2018-07-15T09:02:08.510Z,5812.00
2018-07-15T09:03:08.691Z,6276.00
2018-07-15T09:04:08.883Z,5060.00
2018-07-15T09:05:09.078Z,7500.00
2018-07-15T09:06:09.288Z,6060.00
2018-07-15T09:07:09.453Z,6076.00
2018-07-15T09:08:09.659Z,5044.00
2018-07-15T09:09:09.852Z,6204.00
2018-07-15T09:10:10.049Z,6324.00
2018-07-15T09:11:10.243Z,6640.00
2018-07-15T09:12:10.436Z,6300.00
2018-07-15T09:13:10.626Z,5852.00
2018-07-15T09:14:10.817Z,5024.00
2018-07-15T09:15:11.002Z,14504.00
2018-07-15T09:16:11.222Z,7084.00
2018-07-15T09:17:11.417Z,7488.00
2018-07-15T09:18:11.622Z,4688.00
2018-07-15T09:19:11.802Z,11572.00
2018-07-15T09:20:11.994Z,5996.00
2018-07-15T09:21:12.240Z,6116.00
2018-07-15T09:22:12.384Z,12540.00
2018-07-15T09:23:12.627Z,17440.00
2018-07-15T09:24:12.714Z,12288.00
2018-07-15T09:25:12.919Z,14612.00
2018-07-15T09:26:13.089Z,10308.00
2018-07-15T09:27:13.285Z,6688.00
2018-07-15T09:28:13.476Z,5260.00
2018-07-15T09:29:13.690Z,4796.00
2018-07-15T09:30:13.889Z,5180.00
2018-07-15T09:31:14.087Z,5192.00
2018-07-15T09:32:14.251Z,5164.00
2018-07-15T09:33:14.444Z,4880.00
2018-07-15T09:34:14.640Z,4728.00
2018-07-15T09:35:14.857Z,4424.00
2018-07-15T09:36:15.012Z,4192.00
2018-07-15T09:37:15.203Z,4100.00
2018-07-15T09:38:15.396Z,4076.00
2018-07-15T09:39:15.606Z,4064.00
2018-07-15T09:40:15.796Z,3964.00
2018-07-15T09:41:15.987Z,3988.00
2018-07-15T09:42:16.180Z,3940.00
2018-07-15T09:43:16.386Z,3940.00
2018-07-15T09:44:16.568Z,3772.00
2018-07-15T09:45:16.764Z,3776.00
2018-07-15T09:46:16.969Z,3856.00
2018-07-15T09:47:17.175Z,3964.00
2018-07-15T09:48:17.354Z,4032.00
2018-07-15T09:49:17.546Z,4212.00
2018-07-15T09:50:17.756Z,3836.00
2018-07-15T09:51:17.952Z,4164.00
2018-07-15T09:52:18.145Z,4084.00
2018-07-15T09:53:18.349Z,3956.00
2018-07-15T09:54:18.566Z,3884.00
2018-07-15T09:55:18.749Z,3852.00
2018-07-15T09:56:18.957Z,3648.00
2018-07-15T09:57:19.153Z,3704.00
2018-07-15T09:58:19.382Z,3760.00
2018-07-15T09:59:19.526Z,3756.00
2018-07-15T10:00:19.721Z,3660.00
2018-07-15T10:01:19.934Z,3528.00
2018-07-15T10:02:20.080Z,3528.00
2018-07-15T10:03:20.291Z,3512.00
2018-07-15T10:04:20.475Z,3548.00
2018-07-15T10:05:20.661Z,3488.00
2018-07-15T10:06:20.866Z,3400.00
2018-07-15T10:07:21.059Z,3456.00
2018-07-15T10:08:21.268Z,3412.00
2018-07-15T10:09:21.425Z,3384.00
2018-07-15T10:10:21.698Z,3448.00
2018-07-15T10:11:21.814Z,3328.00
2018-07-15T10:12:22.006Z,3312.00
2018-07-15T10:13:22.188Z,3308.00
2018-07-15T10:14:22.383Z,3272.00
2018-07-15T10:15:22.574Z,3272.00
2018-07-15T10:16:22.781Z,3272.00
2018-07-15T10:17:22.977Z,3288.00
2018-07-15T10:18:23.183Z,3264.00
2018-07-15T10:19:23.350Z,3236.00
2018-07-15T10:20:23.550Z,3156.00
2018-07-15T10:21:23.734Z,3148.00
2018-07-15T10:22:23.916Z,3160.00
2018-07-15T10:23:24.139Z,3200.00
2018-07-15T10:24:24.332Z,3272.00
2018-07-15T10:25:24.528Z,3216.00
2018-07-15T10:26:24.732Z,3192.00
2018-07-15T10:27:24.899Z,3172.00
2018-07-15T10:28:25.090Z,3156.00
2018-07-15T10:29:25.285Z,3124.00
2018-07-15T10:30:25.475Z,3120.00
2018-07-15T10:31:25.670Z,3132.00
2018-07-15T10:32:25.863Z,3120.00
2018-07-15T10:33:26.058Z,3104.00
2018-07-15T10:34:26.252Z,3096.00
2018-07-15T10:35:26.440Z,3104.00
2018-07-15T10:36:26.648Z,3092.00
2018-07-15T10:37:26.831Z,3068.00
2018-07-15T10:38:27.026Z,3052.00
2018-07-15T10:39:27.221Z,3060.00
2018-07-15T10:40:27.416Z,3060.00
2018-07-15T10:41:27.609Z,3104.00
2018-07-15T10:42:27.799Z,3052.00
2018-07-15T10:43:27.988Z,3108.00
2018-07-15T10:44:28.224Z,3096.00
2018-07-15T10:45:28.364Z,3060.00
2018-07-15T10:46:28.556Z,3032.00
2018-07-15T10:47:28.744Z,3224.00
2018-07-15T10:48:28.930Z,3088.00
2018-07-15T10:49:29.120Z,3108.00
2018-07-15T10:50:29.307Z,3064.00
2018-07-15T10:51:29.501Z,3052.00
2018-07-15T10:52:29.690Z,3080.00
2018-07-15T10:53:29.877Z,3112.00
2018-07-15T10:54:30.095Z,3036.00
2018-07-15T10:55:30.258Z,3044.00
2018-07-15T10:56:30.449Z,3260.00
2018-07-15T10:57:30.643Z,2956.00
2018-07-15T10:58:30.843Z,2940.00
2018-07-15T10:59:31.034Z,2924.00
2018-07-15T11:00:31.235Z,2972.00
2018-07-15T11:01:31.407Z,3000.00
2018-07-15T11:02:31.606Z,2964.00
2018-07-15T11:03:31.786Z,2900.00
2018-07-15T11:04:31.977Z,2932.00
2018-07-15T11:05:32.163Z,2892.00
2018-07-15T11:06:32.381Z,2868.00
2018-07-15T11:07:32.572Z,2864.00
2018-07-15T11:08:32.763Z,2904.00
2018-07-15T11:09:32.957Z,2904.00
2018-07-15T11:10:33.169Z,2872.00
2018-07-15T11:11:33.353Z,2884.00
2018-07-15T11:12:33.522Z,2900.00
2018-07-15T11:13:33.730Z,2908.00
2018-07-15T11:14:33.926Z,3000.00
2018-07-15T11:15:34.747Z,2868.00
2018-07-15T11:16:34.317Z,2880.00
2018-07-15T11:17:34.502Z,2872.00
2018-07-15T11:18:34.709Z,2832.00
2018-07-15T11:19:34.862Z,2880.00
2018-07-15T11:20:35.054Z,2856.00
2018-07-15T11:21:35.250Z,2840.00
2018-07-15T11:22:35.435Z,2912.00
2018-07-15T11:23:35.625Z,2788.00
2018-07-15T11:24:35.815Z,2932.00
2018-07-15T11:25:36.017Z,2760.00
2018-07-15T11:26:36.211Z,2736.00
2018-07-15T11:27:36.418Z,2728.00
2018-07-15T11:28:36.596Z,2864.00
2018-07-15T11:29:36.792Z,2744.00
2018-07-15T11:30:37.004Z,2700.00
2018-07-15T11:31:37.204Z,2804.00
2018-07-15T11:32:37.393Z,2712.00
2018-07-15T11:33:37.611Z,2732.00
2018-07-15T11:34:37.820Z,2716.00
2018-07-15T11:35:38.020Z,2756.00
2018-07-15T11:36:38.213Z,2752.00
2018-07-15T11:37:38.406Z,2784.00
2018-07-15T11:38:38.607Z,2756.00
2018-07-15T11:39:38.788Z,2768.00
2018-07-15T11:40:38.975Z,2752.00
2018-07-15T11:41:39.185Z,2804.00
2018-07-15T11:42:39.344Z,2760.00
2018-07-15T11:43:39.541Z,2764.00
2018-07-15T11:44:39.734Z,2784.00
2018-07-15T11:45:39.922Z,2760.00
2018-07-15T11:46:40.116Z,2796.00
2018-07-15T11:47:40.305Z,2760.00
2018-07-15T11:48:40.488Z,2780.00
2018-07-15T11:49:40.674Z,2804.00
2018-07-15T11:50:40.871Z,2696.00
2018-07-15T11:51:41.079Z,2716.00
2018-07-15T11:52:41.236Z,2744.00
2018-07-15T11:53:41.419Z,2712.00
2018-07-15T11:54:41.614Z,2728.00
2018-07-15T11:55:41.808Z,2764.00
2018-07-15T11:56:41.993Z,2796.00
2018-07-15T11:57:42.180Z,2548.00
2018-07-15T11:58:42.379Z,2920.00
2018-07-15T11:59:42.565Z,2944.00
2018-07-15T12:00:42.763Z,2844.00
2018-07-15T12:01:43.071Z,2916.00
2018-07-15T12:02:43.129Z,2928.00
2018-07-15T12:03:43.323Z,2904.00
2018-07-15T12:04:43.518Z,2776.00
2018-07-15T12:05:43.711Z,2788.00
2018-07-15T12:06:43.906Z,2760.00
2018-07-15T12:07:44.100Z,2840.00
2018-07-15T12:08:44.297Z,2752.00
2018-07-15T12:09:44.498Z,2752.00
2018-07-15T12:10:44.674Z,2828.00
2018-07-15T12:11:44.855Z,2788.00
2018-07-15T12:12:45.061Z,2792.00
2018-07-15T12:13:45.252Z,2756.00
2018-07-15T12:14:45.442Z,2800.00
2018-07-15T12:15:45.638Z,2660.00
2018-07-15T12:16:45.828Z,2816.00
2018-07-15T12:17:46.032Z,2852.00
2018-07-15T12:18:46.212Z,2832.00
2018-07-15T12:19:46.405Z,2792.00
2018-07-15T12:20:46.595Z,2860.00
2018-07-15T12:21:46.786Z,2912.00
2018-07-15T12:22:46.981Z,2912.00
2018-07-15T12:23:47.188Z,3036.00
2018-07-15T12:24:47.359Z,2896.00
2018-07-15T12:25:47.550Z,2920.00